createdAt,value
2019-05-12T00:02:14.901Z,10.09
2019-05-12T00:04:41.980Z,10.09
2019-05-12T00:07:09.043Z,10.07
2019-05-12T00:09:38.683Z,10.05
2019-05-12T00:12:05.112Z,10.04
2019-05-12T00:14:32.242Z,10.03
2019-05-12T00:16:59.366Z,10.01
2019-05-12T00:19:28.462Z,9.97
2019-05-12T00:21:55.420Z,9.94
2019-05-12T00:24:22.411Z,9.93
2019-05-12T00:26:51.410Z,9.92
2019-05-12T00:29:18.677Z,9.90
2019-05-12T00:31:47.816Z,9.89
2019-05-12T00:34:14.738Z,9.85
2019-05-12T00:36:41.834Z,9.80
2019-05-12T00:39:08.990Z,9.75
2019-05-12T00:41:38.650Z,9.73
2019-05-12T00:44:05.243Z,9.69
2019-05-12T00:46:32.363Z,9.65
2019-05-12T00:49:00.597Z,9.59
2019-05-12T00:51:28.829Z,9.56
2019-05-12T00:53:57.997Z,9.54
2019-05-12T00:56:25.208Z,9.51
2019-05-12T00:58:52.266Z,9.49
2019-05-12T01:01:19.338Z,9.48
2019-05-12T01:03:48.371Z,9.45
2019-05-12T01:06:17.692Z,9.42
2019-05-12T01:08:44.554Z,9.41
2019-05-12T01:11:11.658Z,9.41
2019-05-12T01:13:38.745Z,9.39
2019-05-12T01:16:07.967Z,9.38
2019-05-12T01:18:34.855Z,9.37
2019-05-12T01:21:01.934Z,9.34
2019-05-12T01:23:29.016Z,9.29
2019-05-12T01:25:58.509Z,9.25
2019-05-12T01:28:27.813Z,9.22
2019-05-12T01:30:58.194Z,9.20
2019-05-12T01:33:27.528Z,9.17
2019-05-12T01:35:54.420Z,9.14
2019-05-12T01:38:21.508Z,9.10
2019-05-12T01:40:48.586Z,9.05
2019-05-12T01:43:15.710Z,9.01
2019-05-12T01:45:42.791Z,8.94
2019-05-12T01:48:09.865Z,8.88
2019-05-12T01:50:38.618Z,8.84
2019-05-12T01:53:08.219Z,8.81
2019-05-12T01:55:34.935Z,8.78
2019-05-12T01:58:02.019Z,8.75
2019-05-12T02:00:30.394Z,8.70
2019-05-12T02:02:58.574Z,8.68
2019-05-12T02:05:28.062Z,8.62
2019-05-12T02:07:58.118Z,8.59
2019-05-12T02:10:24.782Z,8.58
2019-05-12T02:12:51.886Z,8.57
2019-05-12T02:15:19.376Z,8.56
2019-05-12T02:17:48.115Z,8.53
2019-05-12T02:20:17.940Z,8.51
2019-05-12T02:22:45.082Z,8.47
2019-05-12T02:25:13.671Z,8.45
2019-05-12T02:27:40.751Z,8.39
2019-05-12T02:30:10.078Z,8.34
2019-05-12T02:32:48.093Z,8.26
2019-05-12T02:35:06.669Z,8.21
2019-05-12T02:37:35.813Z,8.17
2019-05-12T02:40:04.739Z,8.13
2019-05-12T02:42:34.858Z,8.08
2019-05-12T02:45:01.165Z,8.06
2019-05-12T02:47:28.253Z,8.04
2019-05-12T02:49:55.336Z,8.01
2019-05-12T02:52:25.080Z,7.97
2019-05-12T02:54:56.976Z,7.91
2019-05-12T02:57:21.255Z,7.89
2019-05-12T02:59:49.033Z,7.89
2019-05-12T03:02:16.696Z,7.89
2019-05-12T03:04:44.314Z,7.90
2019-05-12T03:07:15.183Z,7.90
2019-05-12T03:09:40.879Z,7.91
2019-05-12T03:12:08.193Z,7.92
2019-05-12T03:14:40.240Z,7.92
2019-05-12T03:17:04.786Z,7.91
2019-05-12T03:19:34.568Z,7.92
2019-05-12T03:22:01.009Z,7.92
2019-05-12T03:24:28.091Z,7.92
2019-05-12T03:26:55.453Z,7.89
2019-05-12T03:29:25.123Z,7.88
2019-05-12T03:31:56.669Z,7.90
2019-05-12T03:34:21.113Z,7.91
2019-05-12T03:36:51.300Z,7.92
2019-05-12T03:39:17.303Z,7.97
2019-05-12T03:41:44.786Z,8.03
2019-05-12T03:44:14.804Z,8.10
2019-05-12T03:46:40.956Z,8.17
2019-05-12T03:49:08.075Z,8.22
2019-05-12T03:51:35.392Z,8.30
2019-05-12T03:54:04.709Z,8.38
2019-05-12T03:56:34.499Z,8.45
2019-05-12T03:59:00.543Z,8.48
2019-05-12T04:01:27.651Z,8.44
2019-05-12T04:03:54.726Z,8.38
2019-05-12T04:06:24.536Z,8.33
2019-05-12T04:08:54.428Z,8.30
2019-05-12T04:11:19.789Z,8.33
2019-05-12T04:13:46.869Z,8.33
2019-05-12T04:16:16.365Z,8.36
2019-05-12T04:18:45.091Z,8.37
2019-05-12T04:21:15.257Z,8.33
2019-05-12T04:23:44.197Z,8.32
2019-05-12T04:26:13.387Z,8.36
2019-05-12T04:28:38.868Z,8.37
2019-05-12T04:31:05.978Z,8.38
2019-05-12T04:33:34.684Z,8.43
2019-05-12T04:36:05.537Z,8.48
2019-05-12T04:38:35.524Z,8.56
2019-05-12T04:41:01.699Z,8.65
2019-05-12T04:43:28.784Z,8.72
2019-05-12T04:45:55.868Z,8.78
2019-05-12T04:48:25.847Z,8.82
2019-05-12T04:50:54.839Z,8.87
2019-05-12T04:53:20.939Z,8.89
2019-05-12T04:56:06.000Z,8.91
2019-05-12T04:58:17.011Z,8.94
2019-05-12T05:00:44.764Z,8.89
2019-05-12T05:03:14.220Z,8.83
2019-05-12T05:05:43.774Z,8.84
2019-05-12T05:08:10.058Z,8.89
2019-05-12T05:10:37.163Z,8.88
2019-05-12T05:13:05.522Z,8.86
2019-05-12T05:15:34.730Z,8.87
2019-05-12T05:18:06.044Z,8.90
2019-05-12T05:20:30.802Z,8.94
2019-05-12T05:22:57.890Z,8.93
2019-05-12T05:25:24.974Z,9.01
2019-05-12T05:27:53.279Z,9.12
2019-05-12T05:30:20.562Z,9.24
2019-05-12T05:32:47.653Z,9.33
2019-05-12T05:35:14.751Z,9.41
2019-05-12T05:37:44.251Z,9.52
2019-05-12T05:40:13.891Z,9.61
2019-05-12T05:42:40.300Z,9.56
2019-05-12T05:45:09.996Z,9.49
2019-05-12T05:47:36.963Z,9.40
2019-05-12T05:50:04.843Z,9.38
2019-05-12T05:52:38.377Z,9.45
2019-05-12T05:55:07.164Z,9.47
2019-05-12T05:57:29.972Z,9.43
2019-05-12T05:59:57.099Z,9.37
2019-05-12T06:02:31.416Z,9.28
2019-05-12T06:04:56.192Z,9.21
2019-05-12T06:07:25.524Z,9.23
2019-05-12T06:09:53.564Z,9.27
2019-05-12T06:12:20.214Z,9.27
2019-05-12T06:14:54.331Z,9.20
2019-05-12T06:17:16.306Z,9.13
2019-05-12T06:19:44.519Z,9.13
2019-05-12T06:22:15.344Z,9.16
2019-05-12T06:24:40.626Z,9.20
2019-05-12T06:27:15.156Z,9.19
2019-05-12T06:29:36.698Z,9.18
2019-05-12T06:32:06.252Z,9.23
2019-05-12T06:34:34.312Z,9.28
2019-05-12T06:37:03.068Z,9.33
2019-05-12T06:39:30.465Z,9.36
2019-05-12T06:42:11.548Z,9.33
2019-05-12T06:44:26.583Z,9.33
2019-05-12T06:47:02.250Z,9.36
2019-05-12T06:49:24.741Z,9.41
2019-05-12T06:51:53.671Z,9.43
2019-05-12T06:54:21.045Z,9.41
2019-05-12T06:56:49.970Z,9.38
2019-05-12T06:59:17.170Z,9.33
2019-05-12T07:01:44.941Z,9.31
2019-05-12T07:04:14.165Z,9.30
2019-05-12T07:06:41.258Z,9.30
2019-05-12T07:09:09.927Z,9.33
2019-05-12T07:11:44.702Z,9.41
2019-05-12T07:14:13.069Z,9.53
2019-05-12T07:16:35.374Z,9.56
2019-05-12T07:19:07.644Z,9.49
2019-05-12T07:21:33.527Z,9.46
2019-05-12T07:24:05.936Z,9.43
2019-05-12T07:26:29.366Z,9.52
2019-05-12T07:28:56.470Z,9.61
2019-05-12T07:31:24.089Z,9.59
2019-05-12T07:33:54.051Z,9.59
2019-05-12T07:36:20.755Z,9.61
2019-05-12T07:38:49.034Z,9.72
2019-05-12T07:41:19.178Z,9.82
2019-05-12T07:43:50.656Z,9.84
2019-05-12T07:46:16.700Z,9.81
2019-05-12T07:48:46.546Z,9.81
2019-05-12T07:51:13.786Z,9.87
2019-05-12T07:53:40.911Z,9.93
2019-05-12T07:56:07.988Z,10.00
2019-05-12T07:58:35.068Z,10.00
2019-05-12T08:01:05.001Z,9.88
2019-05-12T08:03:31.136Z,9.77
2019-05-12T08:06:01.666Z,9.65
2019-05-12T08:08:27.182Z,9.59
2019-05-12T08:10:56.067Z,9.56
2019-05-12T08:13:23.888Z,9.55
2019-05-12T08:15:55.597Z,9.60
2019-05-12T08:18:20.034Z,9.64
2019-05-12T08:20:47.123Z,9.66
2019-05-12T08:23:14.419Z,9.65
2019-05-12T08:25:43.660Z,9.76
2019-05-12T08:28:15.478Z,9.81
2019-05-12T08:30:46.393Z,9.91
2019-05-12T08:33:09.992Z,10.03
2019-05-12T08:35:38.461Z,10.18
2019-05-12T08:38:06.007Z,10.29
2019-05-12T08:40:34.131Z,10.28
2019-05-12T08:43:08.186Z,10.25
2019-05-12T08:45:36.475Z,10.22
2019-05-12T08:47:59.341Z,10.19
2019-05-12T08:50:31.532Z,10.13
2019-05-12T08:52:55.389Z,10.10
2019-05-12T08:55:31.188Z,10.04
2019-05-12T08:57:51.623Z,10.03
2019-05-12T09:00:34.216Z,10.06
2019-05-12T09:03:03.435Z,10.13
2019-05-12T09:05:34.510Z,10.24
2019-05-12T09:08:00.154Z,10.38
2019-05-12T09:10:27.218Z,10.46
2019-05-12T09:12:54.294Z,10.53
2019-05-12T09:15:21.369Z,10.68
2019-05-12T09:17:52.537Z,10.86
2019-05-12T09:20:17.449Z,11.07
2019-05-12T09:22:44.517Z,11.29
2019-05-12T09:25:11.587Z,11.50
2019-05-12T09:27:39.443Z,11.59
2019-05-12T09:30:09.714Z,11.62
2019-05-12T09:32:39.214Z,11.61
2019-05-12T09:35:06.134Z,11.72
2019-05-12T09:37:38.789Z,11.91
2019-05-12T09:40:04.729Z,12.08
2019-05-12T09:42:33.401Z,12.09
2019-05-12T09:45:08.085Z,12.09
2019-05-12T09:47:29.800Z,12.12
2019-05-12T09:49:57.035Z,12.11
2019-05-12T09:52:27.180Z,12.07
2019-05-12T09:54:54.300Z,12.03
2019-05-12T09:57:21.372Z,11.88
2019-05-12T09:59:55.482Z,11.66
2019-05-12T10:02:20.695Z,11.49
2019-05-12T10:04:50.226Z,11.36
2019-05-12T10:07:15.414Z,11.23
2019-05-12T10:09:44.044Z,11.20
2019-05-12T10:12:13.580Z,11.19
2019-05-12T10:14:45.953Z,11.25
2019-05-12T10:17:11.541Z,11.42
2019-05-12T10:19:38.630Z,11.56
2019-05-12T10:22:05.704Z,11.69
2019-05-12T10:24:41.039Z,11.84
2019-05-12T10:27:03.814Z,11.89
2019-05-12T10:29:32.319Z,11.96
2019-05-12T10:31:59.621Z,12.09
2019-05-12T10:34:29.317Z,12.18
2019-05-12T10:36:56.798Z,12.30
2019-05-12T10:39:24.544Z,12.36
2019-05-12T10:41:53.921Z,12.31
2019-05-12T10:44:20.834Z,12.24
2019-05-12T10:46:53.770Z,12.28
2019-05-12T10:49:23.186Z,12.29
2019-05-12T10:51:53.798Z,12.22
2019-05-12T10:54:20.587Z,12.18
2019-05-12T10:56:47.664Z,12.15
2019-05-12T10:59:28.961Z,12.13
2019-05-12T11:01:47.116Z,12.09
2019-05-12T11:04:14.340Z,12.04
2019-05-12T11:06:46.876Z,12.05
2019-05-12T11:09:10.471Z,12.13
2019-05-12T11:11:42.286Z,12.35
2019-05-12T11:14:06.514Z,12.63
2019-05-12T11:16:35.048Z,12.81
2019-05-12T11:19:06.448Z,12.91
2019-05-12T11:21:33.675Z,13.06
2019-05-12T11:24:03.739Z,13.05
2019-05-12T11:26:29.935Z,12.95
2019-05-12T11:28:57.006Z,12.96
2019-05-12T11:31:24.425Z,13.06
2019-05-12T11:33:53.941Z,13.35
2019-05-12T11:36:24.101Z,13.66
2019-05-12T11:38:53.353Z,13.86
2019-05-12T11:41:20.628Z,13.96
2019-05-12T11:43:47.704Z,13.89
2019-05-12T11:46:14.781Z,13.87
2019-05-12T11:48:46.301Z,13.98
2019-05-12T11:51:14.409Z,14.17
2019-05-12T11:53:41.608Z,14.39
2019-05-12T11:56:09.351Z,14.45
2019-05-12T11:58:41.221Z,14.21
2019-05-12T12:01:08.366Z,14.05
2019-05-12T12:03:35.643Z,13.94
2019-05-12T12:06:02.714Z,14.09
2019-05-12T12:08:35.702Z,14.27
2019-05-12T12:10:58.767Z,14.35
2019-05-12T12:13:29.956Z,14.30
2019-05-12T12:15:54.811Z,14.41
2019-05-12T12:18:23.543Z,14.62
2019-05-12T12:20:56.662Z,14.71
2019-05-12T12:23:19.839Z,14.67
2019-05-12T12:25:48.722Z,14.74
2019-05-12T12:28:15.970Z,14.73
2019-05-12T12:30:47.361Z,14.76
2019-05-12T12:33:14.131Z,14.74
2019-05-12T12:35:40.991Z,14.70
2019-05-12T12:38:08.093Z,14.70
2019-05-12T12:40:36.367Z,14.75
2019-05-12T12:43:04.054Z,14.84
2019-05-12T12:45:40.222Z,14.90
2019-05-12T12:48:06.271Z,15.09
2019-05-12T12:50:34.197Z,15.33
2019-05-12T12:53:01.538Z,15.59
2019-05-12T12:55:28.604Z,15.65
2019-05-12T12:57:55.671Z,15.64
2019-05-12T13:00:32.042Z,15.61
2019-05-12T13:02:55.555Z,15.64
2019-05-12T13:05:23.986Z,15.73
2019-05-12T13:07:52.987Z,15.81
2019-05-12T13:10:20.053Z,15.93
2019-05-12T13:12:50.308Z,16.10
2019-05-12T13:15:20.973Z,16.38
2019-05-12T13:17:47.372Z,16.68
2019-05-12T13:20:19.027Z,16.92
2019-05-12T13:22:46.121Z,16.99
2019-05-12T13:25:16.098Z,17.02
2019-05-12T13:27:46.246Z,16.71
2019-05-12T13:30:19.887Z,16.37
2019-05-12T13:32:44.209Z,16.03
2019-05-12T13:35:16.540Z,15.90
2019-05-12T13:37:40.729Z,15.81
2019-05-12T13:40:09.832Z,15.63
2019-05-12T13:42:37.477Z,15.44
2019-05-12T13:45:05.202Z,15.34
2019-05-12T13:47:39.660Z,15.35
2019-05-12T13:50:06.349Z,15.36
2019-05-12T13:52:33.436Z,15.52
2019-05-12T13:55:05.482Z,15.75
2019-05-12T13:57:30.587Z,16.09
2019-05-12T14:00:06.735Z,16.42
2019-05-12T14:02:26.626Z,16.71
2019-05-12T14:04:53.717Z,16.87
2019-05-12T14:07:23.689Z,16.97
2019-05-12T14:09:56.628Z,16.95
2019-05-12T14:12:25.548Z,17.07
2019-05-12T14:14:52.612Z,16.99
2019-05-12T14:17:19.743Z,16.95
2019-05-12T14:19:46.840Z,17.09
2019-05-12T14:22:21.241Z,17.27
2019-05-12T14:24:46.649Z,17.28
2019-05-12T14:27:13.223Z,17.19
2019-05-12T14:29:44.080Z,17.31
2019-05-12T14:32:12.185Z,17.53
2019-05-12T14:34:40.320Z,17.89
2019-05-12T14:37:10.376Z,18.00
2019-05-12T14:39:40.144Z,17.98
2019-05-12T14:42:09.055Z,18.05
2019-05-12T14:44:44.014Z,18.29
2019-05-12T14:47:05.173Z,18.32
2019-05-12T14:49:33.318Z,18.15
2019-05-12T14:52:00.511Z,17.92
2019-05-12T14:54:27.596Z,17.77
2019-05-12T14:56:57.662Z,17.86
2019-05-12T14:59:24.300Z,18.07
2019-05-12T15:01:58.976Z,18.14
2019-05-12T15:04:29.692Z,17.93
2019-05-12T15:06:54.400Z,17.94
2019-05-12T15:09:24.051Z,18.06
2019-05-12T15:11:50.509Z,18.06
2019-05-12T15:14:17.595Z,17.91
2019-05-12T15:16:45.078Z,17.68
2019-05-12T15:19:13.901Z,17.49
2019-05-12T15:21:43.524Z,17.31
2019-05-12T15:24:15.251Z,17.20
2019-05-12T15:26:40.949Z,17.08
2019-05-12T15:29:13.645Z,16.80
2019-05-12T15:31:38.122Z,16.54
2019-05-12T15:34:09.055Z,16.37
2019-05-12T15:36:36.158Z,16.11
2019-05-12T15:39:06.911Z,15.76
2019-05-12T15:41:35.886Z,15.38
2019-05-12T15:44:03.327Z,15.18
2019-05-12T15:46:40.937Z,15.11
2019-05-12T15:49:03.988Z,15.07
2019-05-12T15:51:35.061Z,15.06
2019-05-12T15:54:06.278Z,15.09
2019-05-12T15:56:30.916Z,15.15
2019-05-12T15:59:00.805Z,15.14
2019-05-12T16:01:27.024Z,15.03
2019-05-12T16:03:54.383Z,14.91
2019-05-12T16:06:21.619Z,14.84
2019-05-12T16:08:48.856Z,14.78
2019-05-12T16:11:15.935Z,14.69
2019-05-12T16:13:46.946Z,14.68
2019-05-12T16:16:14.288Z,14.71
2019-05-12T16:18:46.688Z,14.69
2019-05-12T16:21:10.366Z,14.67
2019-05-12T16:23:37.439Z,14.58
2019-05-12T16:26:10.338Z,14.49
2019-05-12T16:28:33.810Z,14.41
2019-05-12T16:31:04.966Z,14.37
2019-05-12T16:33:29.922Z,14.36
2019-05-12T16:35:59.963Z,14.35
2019-05-12T16:38:25.988Z,14.34
2019-05-12T16:40:54.025Z,14.30
2019-05-12T16:43:23.627Z,14.27
2019-05-12T16:45:50.480Z,14.25
2019-05-12T16:48:29.450Z,14.21
2019-05-12T16:50:46.532Z,14.11
2019-05-12T16:53:21.517Z,13.95
2019-05-12T16:55:46.457Z,13.81
2019-05-12T16:58:13.449Z,13.61
2019-05-12T17:00:45.131Z,13.34
2019-05-12T17:03:11.344Z,13.04
2019-05-12T17:05:38.417Z,12.65
2019-05-12T17:08:05.527Z,12.35
2019-05-12T17:10:35.483Z,12.06
2019-05-12T17:13:07.385Z,11.88
2019-05-12T17:15:33.709Z,11.78
2019-05-12T17:18:01.759Z,11.64
2019-05-12T17:20:33.038Z,11.50
2019-05-12T17:23:00.581Z,11.40
2019-05-12T17:25:27.792Z,11.30
2019-05-12T17:27:58.167Z,11.16
2019-05-12T17:30:24.068Z,11.07
2019-05-12T17:32:57.947Z,11.11
2019-05-12T17:35:25.314Z,11.10
2019-05-12T17:37:49.131Z,11.02
2019-05-12T17:40:20.145Z,10.95
2019-05-12T17:42:45.418Z,10.94
2019-05-12T17:45:18.000Z,10.89
2019-05-12T17:47:44.137Z,10.88
2019-05-12T17:50:10.803Z,10.79
2019-05-12T17:52:37.890Z,10.74
2019-05-12T17:55:10.726Z,10.74
2019-05-12T17:57:34.089Z,10.82
2019-05-12T18:00:06.210Z,10.96
2019-05-12T18:02:30.062Z,11.07
2019-05-12T18:05:01.118Z,11.19
2019-05-12T18:07:26.135Z,11.29
2019-05-12T18:09:56.723Z,11.36
2019-05-12T18:12:26.757Z,11.41
2019-05-12T18:14:52.237Z,11.45
2019-05-12T18:17:19.574Z,11.49
2019-05-12T18:19:50.336Z,11.48
2019-05-12T18:22:15.615Z,11.43
2019-05-12T18:24:49.322Z,11.34
2019-05-12T18:27:13.802Z,11.19
2019-05-12T18:29:40.963Z,11.08
2019-05-12T18:32:10.680Z,10.99
2019-05-12T18:34:37.751Z,10.91
2019-05-12T18:37:06.031Z,10.81
2019-05-12T18:39:34.395Z,10.75
2019-05-12T18:42:03.537Z,10.66
2019-05-12T18:44:31.579Z,10.58
2019-05-12T18:46:58.946Z,10.48
2019-05-12T18:49:26.037Z,10.39
2019-05-12T18:51:55.287Z,10.30
2019-05-12T18:54:24.321Z,10.29
2019-05-12T18:56:52.384Z,10.24
2019-05-12T18:59:23.297Z,10.21
2019-05-12T19:01:54.126Z,10.18
2019-05-12T19:04:21.523Z,10.16
2019-05-12T19:06:48.623Z,10.08
2019-05-12T19:09:15.708Z,10.03
2019-05-12T19:11:46.404Z,9.95
2019-05-12T19:14:13.471Z,9.89
2019-05-12T19:16:43.240Z,9.86
2019-05-12T19:19:15.334Z,9.86
2019-05-12T19:21:40.025Z,9.86
2019-05-12T19:24:08.698Z,9.87
2019-05-12T19:26:38.490Z,9.85
2019-05-12T19:29:05.093Z,9.83
2019-05-12T19:31:33.363Z,9.83
2019-05-12T19:34:15.768Z,9.81
2019-05-12T19:36:30.158Z,9.82
2019-05-12T19:38:57.270Z,9.85
2019-05-12T19:41:24.665Z,9.83
2019-05-12T19:43:53.662Z,9.79
2019-05-12T19:46:20.806Z,9.75
2019-05-12T19:48:50.921Z,9.75
2019-05-12T19:51:24.596Z,9.69
2019-05-12T19:53:48.211Z,9.69
2019-05-12T19:56:18.881Z,9.68
2019-05-12T19:58:47.153Z,9.68
2019-05-12T20:01:17.191Z,9.65
2019-05-12T20:03:44.287Z,9.67
2019-05-12T20:06:13.394Z,9.69
2019-05-12T20:08:40.368Z,9.62
2019-05-12T20:11:07.452Z,9.53
2019-05-12T20:13:36.060Z,9.48
2019-05-12T20:16:03.534Z,9.45
2019-05-12T20:18:36.145Z,9.41
2019-05-12T20:21:01.333Z,9.32
2019-05-12T20:23:28.407Z,9.24
2019-05-12T20:25:57.355Z,9.18
2019-05-12T20:28:24.759Z,9.13
2019-05-12T20:31:00.531Z,9.13
2019-05-12T20:33:20.834Z,9.13
2019-05-12T20:35:49.329Z,9.10
2019-05-12T20:38:16.620Z,9.07
2019-05-12T20:40:43.710Z,9.04
2019-05-12T20:43:12.241Z,9.07
2019-05-12T20:45:40.778Z,9.09
2019-05-12T20:48:08.786Z,9.11
2019-05-12T20:50:38.894Z,9.11
2019-05-12T20:53:05.978Z,9.12
2019-05-12T20:55:36.609Z,9.11
2019-05-12T20:58:04.065Z,9.05
2019-05-12T21:00:31.048Z,9.00
2019-05-12T21:02:58.132Z,8.98
2019-05-12T21:05:25.212Z,8.97
2019-05-12T21:07:55.632Z,8.98
2019-05-12T21:10:26.407Z,9.01
2019-05-12T21:12:50.474Z,9.07
2019-05-12T21:15:20.717Z,9.12
2019-05-12T21:17:58.464Z,9.12
2019-05-12T21:20:17.083Z,9.12
2019-05-12T21:22:44.303Z,9.10
2019-05-12T21:25:12.833Z,9.04
2019-05-12T21:27:46.664Z,8.97
2019-05-12T21:30:12.529Z,8.97
2019-05-12T21:32:40.179Z,8.98
2019-05-12T21:35:18.207Z,8.98
2019-05-12T21:37:45.196Z,9.01
2019-05-12T21:40:06.187Z,9.05
2019-05-12T21:42:33.929Z,9.09
2019-05-12T21:45:01.124Z,9.13
2019-05-12T21:47:28.204Z,9.13
2019-05-12T21:49:57.912Z,9.12
2019-05-12T21:52:24.427Z,9.13
2019-05-12T21:54:51.512Z,9.14
2019-05-12T21:57:19.152Z,9.12
2019-05-12T21:59:48.737Z,9.11
2019-05-12T22:02:19.687Z,9.08
2019-05-12T22:07:23.877Z,9.04
2019-05-12T22:09:51.068Z,8.96
2019-05-12T22:12:18.151Z,8.94
2019-05-12T22:14:46.216Z,8.89
2019-05-12T22:17:13.756Z,8.86
2019-05-12T22:19:40.922Z,8.84
2019-05-12T22:22:08.011Z,8.80
2019-05-12T22:24:38.734Z,8.74
2019-05-12T22:27:05.335Z,8.73
2019-05-12T22:29:34.314Z,8.73
2019-05-12T22:32:01.546Z,8.72
2019-05-12T22:34:37.213Z,8.71
2019-05-12T22:36:59.157Z,8.69
2019-05-12T22:39:26.599Z,8.65
2019-05-12T22:41:53.706Z,8.64
2019-05-12T22:44:24.542Z,8.65
2019-05-12T22:46:49.874Z,8.65
2019-05-12T22:49:21.126Z,8.64
2019-05-12T22:51:54.581Z,8.66
2019-05-12T22:54:18.531Z,8.65
2019-05-12T22:56:49.591Z,8.67
2019-05-12T22:59:14.633Z,8.70
2019-05-12T23:01:44.562Z,8.71
2019-05-12T23:04:10.694Z,8.67
2019-05-12T23:06:42.022Z,8.59
2019-05-12T23:09:06.779Z,8.52
2019-05-12T23:11:37.822Z,8.47
2019-05-12T23:14:04.024Z,8.41
2019-05-12T23:16:33.476Z,8.38
2019-05-12T23:19:01.394Z,8.39
2019-05-12T23:21:29.167Z,8.42
2019-05-12T23:24:00.482Z,8.46
2019-05-12T23:26:25.619Z,8.52
2019-05-12T23:28:53.466Z,8.56
2019-05-12T23:31:26.134Z,8.61
2019-05-12T23:33:49.666Z,8.66
2019-05-12T23:36:19.634Z,8.69
2019-05-12T23:38:45.711Z,8.71
2019-05-12T23:41:13.598Z,8.72
2019-05-12T23:43:40.793Z,8.72
2019-05-12T23:46:07.880Z,8.73
2019-05-12T23:48:34.951Z,8.73
2019-05-12T23:51:03.841Z,8.72
2019-05-12T23:53:31.031Z,8.69
2019-05-12T23:55:59.992Z,8.69
2019-05-12T23:58:27.103Z,8.69
